sensor_id;sensor_type;location;lat;lon;timestamp;P1;durP1;ratioP1;P2;durP2;ratioP2
30729;SDS011;17476;48.458;7.928;2024-03-08T00:00:34;0.30;;;0.30;;
30729;SDS011;17476;48.458;7.928;2024-03-08T00:03:00;0.30;;;0.30;;
30729;SDS011;17476;48.458;7.928;2024-03-08T00:05:27;0.40;;;0.40;;
30729;SDS011;17476;48.458;7.928;2024-03-08T00:07:53;0.30;;;0.30;;
30729;SDS011;17476;48.458;7.928;2024-03-08T00:10:18;0.40;;;0.40;;
30729;SDS011;17476;48.458;7.928;2024-03-08T00:12:46;0.30;;;0.30;;
30729;SDS011;17476;48.458;7.928;2024-03-08T00:15:12;0.30;;;0.30;;
30729;SDS011;17476;48.458;7.928;2024-03-08T00:17:42;0.20;;;0.20;;
30729;SDS011;17476;48.458;7.928;2024-03-08T00:20:09;0.27;;;0.27;;
30729;SDS011;17476;48.458;7.928;2024-03-08T00:22:36;0.30;;;0.30;;
30729;SDS011;17476;48.458;7.928;2024-03-08T00:25:03;0.30;;;0.30;;
30729;SDS011;17476;48.458;7.928;2024-03-08T00:27:30;0.30;;;0.30;;
30729;SDS011;17476;48.458;7.928;2024-03-08T00:29:57;0.30;;;0.30;;
30729;SDS011;17476;48.458;7.928;2024-03-08T00:32:23;0.30;;;0.30;;
30729;SDS011;17476;48.458;7.928;2024-03-08T00:34:52;0.30;;;0.30;;
30729;SDS011;17476;48.458;7.928;2024-03-08T00:37:19;0.30;;;0.30;;
30729;SDS011;17476;48.458;7.928;2024-03-08T00:39:50;0.33;;;0.33;;
30729;SDS011;17476;48.458;7.928;2024-03-08T00:42:19;0.23;;;0.23;;
30729;SDS011;17476;48.458;7.928;2024-03-08T00:44:45;0.30;;;0.30;;
30729;SDS011;17476;48.458;7.928;2024-03-08T00:47:13;0.30;;;0.30;;
30729;SDS011;17476;48.458;7.928;2024-03-08T00:49:40;0.20;;;0.20;;
30729;SDS011;17476;48.458;7.928;2024-03-08T00:52:07;0.40;;;0.40;;
30729;SDS011;17476;48.458;7.928;2024-03-08T00:54:33;0.30;;;0.30;;
30729;SDS011;17476;48.458;7.928;2024-03-08T00:57:01;0.20;;;0.20;;
30729;SDS011;17476;48.458;7.928;2024-03-08T00:59:31;0.30;;;0.30;;
30729;SDS011;17476;48.458;7.928;2024-03-08T01:01:57;0.30;;;0.30;;
30729;SDS011;17476;48.458;7.928;2024-03-08T01:04:25;0.40;;;0.40;;
30729;SDS011;17476;48.458;7.928;2024-03-08T01:06:53;0.40;;;0.40;;
30729;SDS011;17476;48.458;7.928;2024-03-08T01:09:21;0.30;;;0.30;;
30729;SDS011;17476;48.458;7.928;2024-03-08T01:11:52;0.30;;;0.30;;
30729;SDS011;17476;48.458;7.928;2024-03-08T01:14:21;0.30;;;0.30;;
30729;SDS011;17476;48.458;7.928;2024-03-08T01:16:56;0.30;;;0.30;;
30729;SDS011;17476;48.458;7.928;2024-03-08T01:19:22;0.40;;;0.40;;
30729;SDS011;17476;48.458;7.928;2024-03-08T01:21:48;0.13;;;0.13;;
30729;SDS011;17476;48.458;7.928;2024-03-08T01:24:14;0.30;;;0.30;;
30729;SDS011;17476;48.458;7.928;2024-03-08T01:26:40;0.30;;;0.30;;
30729;SDS011;17476;48.458;7.928;2024-03-08T01:29:06;0.20;;;0.20;;
30729;SDS011;17476;48.458;7.928;2024-03-08T01:31:33;0.30;;;0.30;;
30729;SDS011;17476;48.458;7.928;2024-03-08T01:33:59;0.40;;;0.40;;
30729;SDS011;17476;48.458;7.928;2024-03-08T01:36:24;0.20;;;0.20;;
30729;SDS011;17476;48.458;7.928;2024-03-08T01:38:50;0.30;;;0.30;;
30729;SDS011;17476;48.458;7.928;2024-03-08T01:41:17;0.40;;;0.40;;
30729;SDS011;17476;48.458;7.928;2024-03-08T01:43:43;0.20;;;0.20;;
30729;SDS011;17476;48.458;7.928;2024-03-08T01:46:10;0.27;;;0.27;;
30729;SDS011;17476;48.458;7.928;2024-03-08T01:48:41;0.30;;;0.30;;
30729;SDS011;17476;48.458;7.928;2024-03-08T01:51:08;0.27;;;0.27;;
30729;SDS011;17476;48.458;7.928;2024-03-08T01:53:34;0.20;;;0.20;;
30729;SDS011;17476;48.458;7.928;2024-03-08T01:56:00;0.20;;;0.20;;
30729;SDS011;17476;48.458;7.928;2024-03-08T01:58:28;0.30;;;0.30;;
30729;SDS011;17476;48.458;7.928;2024-03-08T02:00:56;0.20;;;0.20;;
30729;SDS011;17476;48.458;7.928;2024-03-08T02:03:23;0.30;;;0.30;;
30729;SDS011;17476;48.458;7.928;2024-03-08T02:05:49;0.27;;;0.27;;
30729;SDS011;17476;48.458;7.928;2024-03-08T02:08:16;0.20;;;0.20;;
30729;SDS011;17476;48.458;7.928;2024-03-08T02:10:45;0.20;;;0.20;;
30729;SDS011;17476;48.458;7.928;2024-03-08T02:13:11;0.30;;;0.30;;
30729;SDS011;17476;48.458;7.928;2024-03-08T02:15:49;0.40;;;0.40;;
30729;SDS011;17476;48.458;7.928;2024-03-08T02:18:29;0.30;;;0.30;;
30729;SDS011;17476;48.458;7.928;2024-03-08T02:20:55;0.30;;;0.30;;
30729;SDS011;17476;48.458;7.928;2024-03-08T02:23:23;0.30;;;0.30;;
30729;SDS011;17476;48.458;7.928;2024-03-08T02:25:52;0.33;;;0.33;;
30729;SDS011;17476;48.458;7.928;2024-03-08T02:28:19;0.30;;;0.30;;
30729;SDS011;17476;48.458;7.928;2024-03-08T02:30:46;0.20;;;0.20;;
30729;SDS011;17476;48.458;7.928;2024-03-08T02:33:16;0.20;;;0.20;;
30729;SDS011;17476;48.458;7.928;2024-03-08T02:35:43;0.20;;;0.20;;
30729;SDS011;17476;48.458;7.928;2024-03-08T02:38:16;0.20;;;0.20;;
30729;SDS011;17476;48.458;7.928;2024-03-08T02:40:47;0.30;;;0.30;;
30729;SDS011;17476;48.458;7.928;2024-03-08T02:43:17;0.30;;;0.30;;
30729;SDS011;17476;48.458;7.928;2024-03-08T02:45:45;0.30;;;0.30;;
30729;SDS011;17476;48.458;7.928;2024-03-08T02:48:11;0.33;;;0.33;;
30729;SDS011;17476;48.458;7.928;2024-03-08T02:50:38;0.30;;;0.30;;
30729;SDS011;17476;48.458;7.928;2024-03-08T02:53:10;0.30;;;0.30;;
30729;SDS011;17476;48.458;7.928;2024-03-08T02:55:38;0.30;;;0.30;;
30729;SDS011;17476;48.458;7.928;2024-03-08T02:58:05;0.20;;;0.20;;
30729;SDS011;17476;48.458;7.928;2024-03-08T03:00:36;0.40;;;0.40;;
30729;SDS011;17476;48.458;7.928;2024-03-08T03:03:03;0.20;;;0.20;;
30729;SDS011;17476;48.458;7.928;2024-03-08T03:05:30;0.30;;;0.30;;
30729;SDS011;17476;48.458;7.928;2024-03-08T03:07:55;0.30;;;0.30;;
30729;SDS011;17476;48.458;7.928;2024-03-08T03:10:24;0.40;;;0.40;;
30729;SDS011;17476;48.458;7.928;2024-03-08T03:12:51;0.37;;;0.37;;
30729;SDS011;17476;48.458;7.928;2024-03-08T03:15:17;0.23;;;0.23;;
30729;SDS011;17476;48.458;7.928;2024-03-08T03:17:50;0.20;;;0.20;;
30729;SDS011;17476;48.458;7.928;2024-03-08T03:20:16;0.30;;;0.30;;
30729;SDS011;17476;48.458;7.928;2024-03-08T03:22:50;0.20;;;0.20;;
30729;SDS011;17476;48.458;7.928;2024-03-08T03:25:20;0.20;;;0.20;;
30729;SDS011;17476;48.458;7.928;2024-03-08T03:27:53;0.40;;;0.40;;
30729;SDS011;17476;48.458;7.928;2024-03-08T03:30:22;0.30;;;0.30;;
30729;SDS011;17476;48.458;7.928;2024-03-08T03:32:51;0.40;;;0.40;;
30729;SDS011;17476;48.458;7.928;2024-03-08T03:35:18;0.20;;;0.20;;
30729;SDS011;17476;48.458;7.928;2024-03-08T03:37:45;0.30;;;0.30;;
30729;SDS011;17476;48.458;7.928;2024-03-08T03:40:31;0.30;;;0.30;;
30729;SDS011;17476;48.458;7.928;2024-03-08T03:42:57;0.30;;;0.30;;
30729;SDS011;17476;48.458;7.928;2024-03-08T03:45:23;0.30;;;0.30;;
30729;SDS011;17476;48.458;7.928;2024-03-08T03:47:49;0.20;;;0.20;;
30729;SDS011;17476;48.458;7.928;2024-03-08T03:50:16;0.20;;;0.20;;
30729;SDS011;17476;48.458;7.928;2024-03-08T03:52:44;0.30;;;0.30;;
30729;SDS011;17476;48.458;7.928;2024-03-08T03:55:11;0.30;;;0.30;;
30729;SDS011;17476;48.458;7.928;2024-03-08T03:57:38;0.23;;;0.23;;
30729;SDS011;17476;48.458;7.928;2024-03-08T04:00:05;0.30;;;0.30;;
30729;SDS011;17476;48.458;7.928;2024-03-08T04:02:37;0.30;;;0.30;;
30729;SDS011;17476;48.458;7.928;2024-03-08T04:05:09;0.27;;;0.27;;
30729;SDS011;17476;48.458;7.928;2024-03-08T04:07:36;0.40;;;0.40;;
30729;SDS011;17476;48.458;7.928;2024-03-08T04:10:03;0.20;;;0.20;;
30729;SDS011;17476;48.458;7.928;2024-03-08T04:12:31;0.30;;;0.30;;
30729;SDS011;17476;48.458;7.928;2024-03-08T04:15:01;0.33;;;0.33;;
30729;SDS011;17476;48.458;7.928;2024-03-08T04:17:27;0.30;;;0.30;;
30729;SDS011;17476;48.458;7.928;2024-03-08T04:19:53;0.30;;;0.30;;
30729;SDS011;17476;48.458;7.928;2024-03-08T04:22:19;0.30;;;0.30;;
30729;SDS011;17476;48.458;7.928;2024-03-08T04:24:45;0.33;;;0.33;;
30729;SDS011;17476;48.458;7.928;2024-03-08T04:27:11;0.30;;;0.30;;
30729;SDS011;17476;48.458;7.928;2024-03-08T04:29:37;0.30;;;0.30;;
30729;SDS011;17476;48.458;7.928;2024-03-08T04:32:03;0.20;;;0.20;;
30729;SDS011;17476;48.458;7.928;2024-03-08T04:34:31;0.20;;;0.20;;
30729;SDS011;17476;48.458;7.928;2024-03-08T04:36:59;0.30;;;0.30;;
30729;SDS011;17476;48.458;7.928;2024-03-08T04:39:25;0.40;;;0.40;;
30729;SDS011;17476;48.458;7.928;2024-03-08T04:41:53;0.30;;;0.30;;
30729;SDS011;17476;48.458;7.928;2024-03-08T04:44:22;0.27;;;0.27;;
30729;SDS011;17476;48.458;7.928;2024-03-08T04:46:49;0.40;;;0.40;;
30729;SDS011;17476;48.458;7.928;2024-03-08T04:49:15;0.30;;;0.30;;
30729;SDS011;17476;48.458;7.928;2024-03-08T04:51:41;0.30;;;0.30;;
30729;SDS011;17476;48.458;7.928;2024-03-08T04:54:07;0.30;;;0.30;;
30729;SDS011;17476;48.458;7.928;2024-03-08T04:56:33;0.27;;;0.27;;
30729;SDS011;17476;48.458;7.928;2024-03-08T04:58:59;0.30;;;0.30;;
30729;SDS011;17476;48.458;7.928;2024-03-08T05:01:25;0.20;;;0.20;;
30729;SDS011;17476;48.458;7.928;2024-03-08T05:03:51;0.20;;;0.20;;
30729;SDS011;17476;48.458;7.928;2024-03-08T05:06:20;0.30;;;0.30;;
30729;SDS011;17476;48.458;7.928;2024-03-08T05:08:46;0.40;;;0.40;;
30729;SDS011;17476;48.458;7.928;2024-03-08T05:11:11;0.33;;;0.33;;
30729;SDS011;17476;48.458;7.928;2024-03-08T05:13:40;0.30;;;0.30;;
30729;SDS011;17476;48.458;7.928;2024-03-08T05:16:06;0.30;;;0.30;;
30729;SDS011;17476;48.458;7.928;2024-03-08T05:18:35;0.30;;;0.30;;
30729;SDS011;17476;48.458;7.928;2024-03-08T05:21:01;0.30;;;0.30;;
30729;SDS011;17476;48.458;7.928;2024-03-08T05:23:29;0.30;;;0.30;;
30729;SDS011;17476;48.458;7.928;2024-03-08T05:25:55;0.37;;;0.37;;
30729;SDS011;17476;48.458;7.928;2024-03-08T05:28:22;0.30;;;0.30;;
30729;SDS011;17476;48.458;7.928;2024-03-08T05:30:47;0.30;;;0.30;;
30729;SDS011;17476;48.458;7.928;2024-03-08T05:33:13;0.30;;;0.30;;
30729;SDS011;17476;48.458;7.928;2024-03-08T05:35:39;0.30;;;0.30;;
30729;SDS011;17476;48.458;7.928;2024-03-08T05:38:05;0.30;;;0.30;;
30729;SDS011;17476;48.458;7.928;2024-03-08T05:40:32;0.30;;;0.30;;
30729;SDS011;17476;48.458;7.928;2024-03-08T05:43:00;0.30;;;0.30;;
30729;SDS011;17476;48.458;7.928;2024-03-08T05:45:26;0.20;;;0.20;;
30729;SDS011;17476;48.458;7.928;2024-03-08T05:47:52;0.40;;;0.40;;
30729;SDS011;17476;48.458;7.928;2024-03-08T05:50:18;0.40;;;0.40;;
30729;SDS011;17476;48.458;7.928;2024-03-08T05:52:44;0.30;;;0.30;;
30729;SDS011;17476;48.458;7.928;2024-03-08T05:55:10;0.33;;;0.33;;
30729;SDS011;17476;48.458;7.928;2024-03-08T05:57:39;0.40;;;0.40;;
30729;SDS011;17476;48.458;7.928;2024-03-08T06:00:10;0.30;;;0.30;;
30729;SDS011;17476;48.458;7.928;2024-03-08T06:02:37;0.30;;;0.30;;
30729;SDS011;17476;48.458;7.928;2024-03-08T06:05:07;0.20;;;0.20;;
30729;SDS011;17476;48.458;7.928;2024-03-08T06:07:35;0.30;;;0.30;;
30729;SDS011;17476;48.458;7.928;2024-03-08T06:10:04;0.30;;;0.30;;
30729;SDS011;17476;48.458;7.928;2024-03-08T06:12:32;0.27;;;0.27;;
30729;SDS011;17476;48.458;7.928;2024-03-08T06:15:02;0.20;;;0.20;;
30729;SDS011;17476;48.458;7.928;2024-03-08T06:17:32;0.40;;;0.40;;
30729;SDS011;17476;48.458;7.928;2024-03-08T06:19:59;0.20;;;0.20;;
30729;SDS011;17476;48.458;7.928;2024-03-08T06:22:24;0.33;;;0.33;;
30729;SDS011;17476;48.458;7.928;2024-03-08T06:24:50;0.27;;;0.27;;
30729;SDS011;17476;48.458;7.928;2024-03-08T06:27:16;0.30;;;0.30;;
30729;SDS011;17476;48.458;7.928;2024-03-08T06:29:42;0.30;;;0.30;;
30729;SDS011;17476;48.458;7.928;2024-03-08T06:32:08;0.30;;;0.30;;
30729;SDS011;17476;48.458;7.928;2024-03-08T06:34:34;0.30;;;0.30;;
30729;SDS011;17476;48.458;7.928;2024-03-08T06:37:00;0.30;;;0.30;;
30729;SDS011;17476;48.458;7.928;2024-03-08T06:39:26;0.20;;;0.20;;
30729;SDS011;17476;48.458;7.928;2024-03-08T06:41:56;0.20;;;0.20;;
30729;SDS011;17476;48.458;7.928;2024-03-08T06:44:22;0.20;;;0.20;;
30729;SDS011;17476;48.458;7.928;2024-03-08T06:46:48;0.40;;;0.40;;
30729;SDS011;17476;48.458;7.928;2024-03-08T06:49:14;0.30;;;0.30;;
30729;SDS011;17476;48.458;7.928;2024-03-08T06:51:40;0.30;;;0.30;;
30729;SDS011;17476;48.458;7.928;2024-03-08T06:54:06;0.30;;;0.30;;
30729;SDS011;17476;48.458;7.928;2024-03-08T06:56:33;0.30;;;0.30;;
30729;SDS011;17476;48.458;7.928;2024-03-08T06:59:00;0.30;;;0.30;;
30729;SDS011;17476;48.458;7.928;2024-03-08T07:01:28;0.20;;;0.20;;
30729;SDS011;17476;48.458;7.928;2024-03-08T07:03:57;0.20;;;0.20;;
30729;SDS011;17476;48.458;7.928;2024-03-08T07:06:23;0.30;;;0.30;;
30729;SDS011;17476;48.458;7.928;2024-03-08T07:08:49;0.20;;;0.20;;
30729;SDS011;17476;48.458;7.928;2024-03-08T07:11:14;0.30;;;0.30;;
30729;SDS011;17476;48.458;7.928;2024-03-08T07:13:46;0.20;;;0.20;;
30729;SDS011;17476;48.458;7.928;2024-03-08T07:16:12;0.30;;;0.30;;
30729;SDS011;17476;48.458;7.928;2024-03-08T07:18:38;0.30;;;0.30;;
30729;SDS011;17476;48.458;7.928;2024-03-08T07:21:08;0.20;;;0.20;;
30729;SDS011;17476;48.458;7.928;2024-03-08T07:23:35;0.27;;;0.27;;
30729;SDS011;17476;48.458;7.928;2024-03-08T07:26:36;0.30;;;0.30;;
30729;SDS011;17476;48.458;7.928;2024-03-08T07:29:03;0.10;;;0.10;;
30729;SDS011;17476;48.458;7.928;2024-03-08T07:31:29;0.23;;;0.23;;
30729;SDS011;17476;48.458;7.928;2024-03-08T07:34:07;0.20;;;0.20;;
30729;SDS011;17476;48.458;7.928;2024-03-08T07:36:36;0.30;;;0.30;;
30729;SDS011;17476;48.458;7.928;2024-03-08T07:39:02;0.20;;;0.20;;
30729;SDS011;17476;48.458;7.928;2024-03-08T07:41:30;0.20;;;0.20;;
30729;SDS011;17476;48.458;7.928;2024-03-08T07:43:56;0.30;;;0.30;;
30729;SDS011;17476;48.458;7.928;2024-03-08T07:46:22;0.30;;;0.30;;
30729;SDS011;17476;48.458;7.928;2024-03-08T07:48:48;0.20;;;0.20;;
30729;SDS011;17476;48.458;7.928;2024-03-08T07:51:16;0.20;;;0.20;;
30729;SDS011;17476;48.458;7.928;2024-03-08T07:53:43;0.20;;;0.20;;
30729;SDS011;17476;48.458;7.928;2024-03-08T07:56:08;0.20;;;0.20;;
30729;SDS011;17476;48.458;7.928;2024-03-08T07:58:38;0.30;;;0.30;;
30729;SDS011;17476;48.458;7.928;2024-03-08T08:01:05;0.20;;;0.20;;
30729;SDS011;17476;48.458;7.928;2024-03-08T08:03:32;0.20;;;0.20;;
30729;SDS011;17476;48.458;7.928;2024-03-08T08:05:57;0.20;;;0.20;;
30729;SDS011;17476;48.458;7.928;2024-03-08T08:08:23;0.20;;;0.20;;
30729;SDS011;17476;48.458;7.928;2024-03-08T08:10:51;0.13;;;0.13;;
30729;SDS011;17476;48.458;7.928;2024-03-08T08:13:16;0.30;;;0.30;;
30729;SDS011;17476;48.458;7.928;2024-03-08T08:15:43;0.20;;;0.20;;
30729;SDS011;17476;48.458;7.928;2024-03-08T08:18:09;0.30;;;0.30;;
30729;SDS011;17476;48.458;7.928;2024-03-08T08:20:35;0.30;;;0.30;;
30729;SDS011;17476;48.458;7.928;2024-03-08T08:23:00;0.30;;;0.30;;
30729;SDS011;17476;48.458;7.928;2024-03-08T08:25:26;0.10;;;0.10;;
30729;SDS011;17476;48.458;7.928;2024-03-08T08:27:52;0.20;;;0.20;;
30729;SDS011;17476;48.458;7.928;2024-03-08T08:30:18;0.20;;;0.20;;
30729;SDS011;17476;48.458;7.928;2024-03-08T08:32:45;0.20;;;0.20;;
30729;SDS011;17476;48.458;7.928;2024-03-08T08:35:12;0.20;;;0.20;;
30729;SDS011;17476;48.458;7.928;2024-03-08T08:37:41;0.10;;;0.10;;
30729;SDS011;17476;48.458;7.928;2024-03-08T08:40:07;0.20;;;0.20;;
30729;SDS011;17476;48.458;7.928;2024-03-08T08:42:35;0.13;;;0.13;;
30729;SDS011;17476;48.458;7.928;2024-03-08T08:45:02;0.20;;;0.20;;
30729;SDS011;17476;48.458;7.928;2024-03-08T08:47:33;0.20;;;0.20;;
30729;SDS011;17476;48.458;7.928;2024-03-08T08:50:00;0.20;;;0.20;;
30729;SDS011;17476;48.458;7.928;2024-03-08T08:52:26;0.20;;;0.20;;
30729;SDS011;17476;48.458;7.928;2024-03-08T08:54:51;0.20;;;0.20;;
30729;SDS011;17476;48.458;7.928;2024-03-08T08:57:17;0.20;;;0.20;;
30729;SDS011;17476;48.458;7.928;2024-03-08T08:59:43;0.10;;;0.10;;
30729;SDS011;17476;48.458;7.928;2024-03-08T09:02:10;0.20;;;0.20;;
30729;SDS011;17476;48.458;7.928;2024-03-08T09:04:36;0.10;;;0.10;;
30729;SDS011;17476;48.458;7.928;2024-03-08T09:07:02;0.20;;;0.20;;
30729;SDS011;17476;48.458;7.928;2024-03-08T09:09:31;0.20;;;0.20;;
30729;SDS011;17476;48.458;7.928;2024-03-08T09:11:57;0.20;;;0.20;;
30729;SDS011;17476;48.458;7.928;2024-03-08T09:14:23;0.20;;;0.20;;
30729;SDS011;17476;48.458;7.928;2024-03-08T09:16:51;0.20;;;0.20;;
30729;SDS011;17476;48.458;7.928;2024-03-08T09:19:17;0.20;;;0.20;;
30729;SDS011;17476;48.458;7.928;2024-03-08T09:21:44;0.10;;;0.10;;
30729;SDS011;17476;48.458;7.928;2024-03-08T09:24:10;0.10;;;0.10;;
30729;SDS011;17476;48.458;7.928;2024-03-08T09:26:37;0.10;;;0.10;;
30729;SDS011;17476;48.458;7.928;2024-03-08T09:29:03;0.10;;;0.10;;
30729;SDS011;17476;48.458;7.928;2024-03-08T09:31:32;0.20;;;0.20;;
30729;SDS011;17476;48.458;7.928;2024-03-08T09:33:57;0.20;;;0.20;;
30729;SDS011;17476;48.458;7.928;2024-03-08T09:36:23;0.10;;;0.10;;
30729;SDS011;17476;48.458;7.928;2024-03-08T09:38:50;0.20;;;0.20;;
30729;SDS011;17476;48.458;7.928;2024-03-08T09:41:16;0.10;;;0.10;;
30729;SDS011;17476;48.458;7.928;2024-03-08T09:43:42;0.20;;;0.20;;
30729;SDS011;17476;48.458;7.928;2024-03-08T09:46:09;0.10;;;0.10;;
30729;SDS011;17476;48.458;7.928;2024-03-08T09:48:36;0.10;;;0.10;;
30729;SDS011;17476;48.458;7.928;2024-03-08T09:51:03;0.20;;;0.20;;
30729;SDS011;17476;48.458;7.928;2024-03-08T09:53:30;0.20;;;0.20;;
30729;SDS011;17476;48.458;7.928;2024-03-08T09:55:56;0.10;;;0.10;;
30729;SDS011;17476;48.458;7.928;2024-03-08T09:58:22;0.10;;;0.10;;
30729;SDS011;17476;48.458;7.928;2024-03-08T10:01:01;0.10;;;0.10;;
30729;SDS011;17476;48.458;7.928;2024-03-08T10:03:29;0.10;;;0.10;;
30729;SDS011;17476;48.458;7.928;2024-03-08T10:05:57;0.10;;;0.10;;
30729;SDS011;17476;48.458;7.928;2024-03-08T10:08:26;0.10;;;0.10;;
30729;SDS011;17476;48.458;7.928;2024-03-08T10:10:54;0.10;;;0.10;;
30729;SDS011;17476;48.458;7.928;2024-03-08T10:13:23;0.10;;;0.10;;
30729;SDS011;17476;48.458;7.928;2024-03-08T10:15:52;0.10;;;0.10;;
30729;SDS011;17476;48.458;7.928;2024-03-08T10:18:18;0.10;;;0.10;;
30729;SDS011;17476;48.458;7.928;2024-03-08T10:20:44;0.10;;;0.10;;
30729;SDS011;17476;48.458;7.928;2024-03-08T10:23:10;0.07;;;0.07;;
30729;SDS011;17476;48.458;7.928;2024-03-08T10:25:36;0.10;;;0.10;;
30729;SDS011;17476;48.458;7.928;2024-03-08T10:28:03;0.10;;;0.10;;
30729;SDS011;17476;48.458;7.928;2024-03-08T10:30:29;0.10;;;0.10;;
30729;SDS011;17476;48.458;7.928;2024-03-08T10:32:56;0.10;;;0.10;;
30729;SDS011;17476;48.458;7.928;2024-03-08T10:35:23;0.10;;;0.10;;
30729;SDS011;17476;48.458;7.928;2024-03-08T10:37:49;0.10;;;0.10;;
30729;SDS011;17476;48.458;7.928;2024-03-08T10:40:34;0.10;;;0.10;;
30729;SDS011;17476;48.458;7.928;2024-03-08T10:43:04;0.10;;;0.10;;
30729;SDS011;17476;48.458;7.928;2024-03-08T10:45:37;0.10;;;0.10;;
30729;SDS011;17476;48.458;7.928;2024-03-08T10:50:56;0.00;;;0.00;;
30729;SDS011;17476;48.458;7.928;2024-03-08T10:53:27;0.10;;;0.10;;
30729;SDS011;17476;48.458;7.928;2024-03-08T10:55:54;0.10;;;0.10;;
30729;SDS011;17476;48.458;7.928;2024-03-08T10:58:22;0.10;;;0.10;;
30729;SDS011;17476;48.458;7.928;2024-03-08T11:00:52;0.03;;;0.03;;
30729;SDS011;17476;48.458;7.928;2024-03-08T11:06:18;0.10;;;0.10;;
30729;SDS011;17476;48.458;7.928;2024-03-08T11:09:03;0.10;;;0.10;;
30729;SDS011;17476;48.458;7.928;2024-03-08T11:12:22;0.10;;;0.10;;
30729;SDS011;17476;48.458;7.928;2024-03-08T11:14:50;0.10;;;0.10;;
30729;SDS011;17476;48.458;7.928;2024-03-08T11:19:55;0.10;;;0.10;;
30729;SDS011;17476;48.458;7.928;2024-03-08T11:22:31;0.10;;;0.10;;
30729;SDS011;17476;48.458;7.928;2024-03-08T11:25:02;0.10;;;0.10;;
30729;SDS011;17476;48.458;7.928;2024-03-08T11:27:34;0.10;;;0.10;;
30729;SDS011;17476;48.458;7.928;2024-03-08T11:30:05;0.10;;;0.10;;
30729;SDS011;17476;48.458;7.928;2024-03-08T11:32:46;0.10;;;0.10;;
30729;SDS011;17476;48.458;7.928;2024-03-08T11:35:18;0.10;;;0.10;;
30729;SDS011;17476;48.458;7.928;2024-03-08T11:37:48;0.07;;;0.07;;
30729;SDS011;17476;48.458;7.928;2024-03-08T11:40:14;0.00;;;0.00;;
30729;SDS011;17476;48.458;7.928;2024-03-08T11:42:45;0.10;;;0.10;;
30729;SDS011;17476;48.458;7.928;2024-03-08T11:45:12;0.00;;;0.00;;
30729;SDS011;17476;48.458;7.928;2024-03-08T11:47:42;0.00;;;0.00;;
30729;SDS011;17476;48.458;7.928;2024-03-08T11:50:13;0.10;;;0.10;;
30729;SDS011;17476;48.458;7.928;2024-03-08T11:52:39;0.00;;;0.00;;
30729;SDS011;17476;48.458;7.928;2024-03-08T11:55:05;0.10;;;0.10;;
30729;SDS011;17476;48.458;7.928;2024-03-08T11:57:32;0.10;;;0.10;;
30729;SDS011;17476;48.458;7.928;2024-03-08T11:59:58;0.00;;;0.00;;
30729;SDS011;17476;48.458;7.928;2024-03-08T12:02:32;0.10;;;0.10;;
30729;SDS011;17476;48.458;7.928;2024-03-08T12:05:03;0.10;;;0.10;;
30729;SDS011;17476;48.458;7.928;2024-03-08T12:07:35;0.03;;;0.03;;
30729;SDS011;17476;48.458;7.928;2024-03-08T12:10:14;0.10;;;0.10;;
30729;SDS011;17476;48.458;7.928;2024-03-08T12:12:47;0.10;;;0.10;;
30729;SDS011;17476;48.458;7.928;2024-03-08T12:15:16;0.10;;;0.10;;
30729;SDS011;17476;48.458;7.928;2024-03-08T12:17:45;0.10;;;0.10;;
30729;SDS011;17476;48.458;7.928;2024-03-08T12:20:18;0.00;;;0.00;;
30729;SDS011;17476;48.458;7.928;2024-03-08T12:22:54;0.10;;;0.10;;
30729;SDS011;17476;48.458;7.928;2024-03-08T12:25:26;0.10;;;0.10;;
30729;SDS011;17476;48.458;7.928;2024-03-08T12:28:08;0.10;;;0.10;;
30729;SDS011;17476;48.458;7.928;2024-03-08T12:30:35;0.10;;;0.10;;
30729;SDS011;17476;48.458;7.928;2024-03-08T12:33:17;0.10;;;0.10;;
30729;SDS011;17476;48.458;7.928;2024-03-08T12:35:50;0.10;;;0.10;;
30729;SDS011;17476;48.458;7.928;2024-03-08T12:38:20;0.07;;;0.07;;
30729;SDS011;17476;48.458;7.928;2024-03-08T12:40:56;0.10;;;0.10;;
30729;SDS011;17476;48.458;7.928;2024-03-08T12:43:24;0.10;;;0.10;;
30729;SDS011;17476;48.458;7.928;2024-03-08T12:45:50;0.10;;;0.10;;
30729;SDS011;17476;48.458;7.928;2024-03-08T12:48:16;0.10;;;0.10;;
30729;SDS011;17476;48.458;7.928;2024-03-08T12:50:42;0.00;;;0.00;;
30729;SDS011;17476;48.458;7.928;2024-03-08T12:53:10;0.00;;;0.00;;
30729;SDS011;17476;48.458;7.928;2024-03-08T12:55:36;0.10;;;0.10;;
30729;SDS011;17476;48.458;7.928;2024-03-08T12:58:03;0.10;;;0.10;;
30729;SDS011;17476;48.458;7.928;2024-03-08T13:00:32;0.00;;;0.00;;
30729;SDS011;17476;48.458;7.928;2024-03-08T13:03:01;0.00;;;0.00;;
30729;SDS011;17476;48.458;7.928;2024-03-08T13:05:27;0.10;;;0.10;;
30729;SDS011;17476;48.458;7.928;2024-03-08T13:07:54;0.10;;;0.10;;
30729;SDS011;17476;48.458;7.928;2024-03-08T13:10:21;0.03;;;0.03;;
30729;SDS011;17476;48.458;7.928;2024-03-08T13:12:47;0.10;;;0.10;;
30729;SDS011;17476;48.458;7.928;2024-03-08T13:15:13;0.03;;;0.03;;
30729;SDS011;17476;48.458;7.928;2024-03-08T13:17:46;0.10;;;0.10;;
30729;SDS011;17476;48.458;7.928;2024-03-08T13:20:13;0.10;;;0.10;;
30729;SDS011;17476;48.458;7.928;2024-03-08T13:22:44;0.10;;;0.10;;
30729;SDS011;17476;48.458;7.928;2024-03-08T13:25:11;0.10;;;0.10;;
30729;SDS011;17476;48.458;7.928;2024-03-08T13:27:38;0.10;;;0.10;;
30729;SDS011;17476;48.458;7.928;2024-03-08T13:30:06;0.10;;;0.10;;
30729;SDS011;17476;48.458;7.928;2024-03-08T13:32:36;0.10;;;0.10;;
30729;SDS011;17476;48.458;7.928;2024-03-08T13:35:01;0.00;;;0.00;;
30729;SDS011;17476;48.458;7.928;2024-03-08T13:37:29;0.10;;;0.10;;
30729;SDS011;17476;48.458;7.928;2024-03-08T13:39:58;0.10;;;0.10;;
30729;SDS011;17476;48.458;7.928;2024-03-08T13:42:27;0.00;;;0.00;;
30729;SDS011;17476;48.458;7.928;2024-03-08T13:44:52;0.10;;;0.10;;
30729;SDS011;17476;48.458;7.928;2024-03-08T13:47:18;0.10;;;0.10;;
30729;SDS011;17476;48.458;7.928;2024-03-08T13:49:44;0.10;;;0.10;;
30729;SDS011;17476;48.458;7.928;2024-03-08T13:52:10;0.00;;;0.00;;
30729;SDS011;17476;48.458;7.928;2024-03-08T13:54:38;0.00;;;0.00;;
30729;SDS011;17476;48.458;7.928;2024-03-08T13:57:04;0.00;;;0.00;;
30729;SDS011;17476;48.458;7.928;2024-03-08T13:59:32;0.00;;;0.00;;
30729;SDS011;17476;48.458;7.928;2024-03-08T14:02:01;0.00;;;0.00;;
30729;SDS011;17476;48.458;7.928;2024-03-08T14:04:28;0.00;;;0.00;;
30729;SDS011;17476;48.458;7.928;2024-03-08T14:06:54;0.00;;;0.00;;
30729;SDS011;17476;48.458;7.928;2024-03-08T14:09:24;0.00;;;0.00;;
30729;SDS011;17476;48.458;7.928;2024-03-08T14:11:50;0.00;;;0.00;;
30729;SDS011;17476;48.458;7.928;2024-03-08T14:14:22;0.00;;;0.00;;
30729;SDS011;17476;48.458;7.928;2024-03-08T14:16:51;0.00;;;0.00;;
30729;SDS011;17476;48.458;7.928;2024-03-08T14:19:22;0.00;;;0.00;;
30729;SDS011;17476;48.458;7.928;2024-03-08T14:21:48;0.00;;;0.00;;
30729;SDS011;17476;48.458;7.928;2024-03-08T14:24:15;0.00;;;0.00;;
30729;SDS011;17476;48.458;7.928;2024-03-08T14:26:41;0.00;;;0.00;;
30729;SDS011;17476;48.458;7.928;2024-03-08T14:29:07;0.00;;;0.00;;
30729;SDS011;17476;48.458;7.928;2024-03-08T14:31:35;0.00;;;0.00;;
30729;SDS011;17476;48.458;7.928;2024-03-08T14:34:02;0.00;;;0.00;;
30729;SDS011;17476;48.458;7.928;2024-03-08T14:36:28;0.00;;;0.00;;
30729;SDS011;17476;48.458;7.928;2024-03-08T14:38:54;0.00;;;0.00;;
30729;SDS011;17476;48.458;7.928;2024-03-08T14:41:20;0.00;;;0.00;;
30729;SDS011;17476;48.458;7.928;2024-03-08T14:43:49;0.00;;;0.00;;
30729;SDS011;17476;48.458;7.928;2024-03-08T14:46:17;0.00;;;0.00;;
30729;SDS011;17476;48.458;7.928;2024-03-08T14:49:04;0.00;;;0.00;;
30729;SDS011;17476;48.458;7.928;2024-03-08T14:51:29;0.00;;;0.00;;
30729;SDS011;17476;48.458;7.928;2024-03-08T14:53:56;0.00;;;0.00;;
30729;SDS011;17476;48.458;7.928;2024-03-08T14:56:22;0.00;;;0.00;;
30729;SDS011;17476;48.458;7.928;2024-03-08T14:58:52;0.00;;;0.00;;
30729;SDS011;17476;48.458;7.928;2024-03-08T15:01:18;0.00;;;0.00;;